Time;durP1;ratioP1;P1;durP2;ratioP2;P2;SDS_P1;SDS_P2;PMS_P1;PMS_P2;Temp;Humidity;BMP_temperature;BMP_pressure;BME280_temperature;BME280_humidity;BME280_pressure;Samples;Min_cycle;Max_cycle;Signal;HPM_P1;HPM_P2
2023/04/21 00:01:31;;;;;;;19.30;10.40;;;7.80;99.90;;;;;;5048728;28;20190;-66
2023/04/21 00:03:58;;;;;;;12.30;10.03;;;7.90;99.90;;;;;;5053772;28;20213;-64
2023/04/21 00:06:25;;;;;;;13.30;9.77;;;7.90;99.90;;;;;;5059533;28;20297;-64
2023/04/21 00:08:51;;;;;;;14.00;9.30;;;7.80;99.90;;;;;;5047981;28;20549;-64
2023/04/21 00:11:17;;;;;;;15.47;9.90;;;7.80;99.90;;;;;;5054917;28;20239;-64
2023/04/21 00:13:43;;;;;;;12.73;9.40;;;7.90;99.90;;;;;;5044214;28;20202;-64
2023/04/21 00:16:09;;;;;;;14.87;10.60;;;7.90;99.90;;;;;;5039672;28;20190;-64
2023/04/21 00:18:35;;;;;;;14.10;9.90;;;7.90;99.90;;;;;;5044962;28;20233;-64
2023/04/21 00:21:00;;;;;;;15.83;11.10;;;7.90;99.90;;;;;;5085257;28;20194;-64
2023/04/21 00:23:26;;;;;;;14.70;10.67;;;7.90;99.90;;;;;;5045669;28;20283;-66
2023/04/21 00:25:52;;;;;;;13.70;10.17;;;7.90;99.90;;;;;;5051140;28;20643;-65
2023/04/21 00:28:18;;;;;;;16.00;10.60;;;8.00;99.90;;;;;;5053345;28;20231;-65
2023/04/21 00:30:43;;;;;;;13.80;10.10;;;8.20;99.90;;;;;;5055024;28;20216;-65
2023/04/21 00:33:09;;;;;;;12.77;10.03;;;8.20;99.90;;;;;;5053077;28;20591;-65
2023/04/21 00:35:35;;;;;;;13.70;10.13;;;8.10;99.90;;;;;;5053960;28;20189;-65
2023/04/21 00:38:01;;;;;;;17.63;9.80;;;8.10;99.90;;;;;;5054735;28;20210;-65
2023/04/21 00:40:26;;;;;;;16.03;10.43;;;8.10;99.90;;;;;;5050372;28;20572;-65
2023/04/21 00:42:52;;;;;;;14.30;10.53;;;8.30;99.90;;;;;;5047576;28;20285;-65
2023/04/21 00:45:18;;;;;;;14.67;10.53;;;8.30;99.90;;;;;;5047861;28;20681;-65
2023/04/21 00:47:44;;;;;;;17.70;11.73;;;8.20;99.90;;;;;;5041364;28;20183;-66
2023/04/21 00:50:10;;;;;;;17.60;10.77;;;8.30;99.90;;;;;;5042604;28;20197;-65
2023/04/21 00:52:40;;;;;;;18.87;11.13;;;8.30;99.90;;;;;;5054673;28;20193;-65
2023/04/21 00:55:06;;;;;;;19.90;11.17;;;8.30;99.90;;;;;;5054474;28;20225;-65
2023/04/21 00:57:36;;;;;;;14.77;10.77;;;8.40;99.90;;;;;;5047758;28;20636;-65
2023/04/21 01:00:04;;;;;;;15.83;10.83;;;8.50;99.90;;;;;;5051320;28;20182;-66
2023/04/21 01:02:30;;;;;;;18.90;11.60;;;8.50;99.90;;;;;;5054436;28;20775;-65
2023/04/21 01:04:56;;;;;;;16.63;11.40;;;8.40;99.90;;;;;;5042095;28;20198;-65
2023/04/21 01:07:24;;;;;;;20.33;11.00;;;8.30;99.90;;;;;;5053697;28;20770;-65
2023/04/21 01:09:50;;;;;;;19.07;10.67;;;8.20;99.90;;;;;;5045118;28;20181;-65
2023/04/21 01:12:15;;;;;;;20.90;12.23;;;8.10;99.90;;;;;;5051367;28;20186;-65
2023/04/21 01:14:41;;;;;;;19.40;11.17;;;8.10;99.90;;;;;;5086494;28;20190;-65
2023/04/21 01:17:07;;;;;;;18.37;12.10;;;8.10;99.90;;;;;;5041177;28;20221;-65
2023/04/21 01:19:38;;;;;;;20.03;12.93;;;8.00;99.90;;;;;;5073002;28;20189;-64
2023/04/21 01:22:09;;;;;;;18.30;12.20;;;7.80;99.90;;;;;;5053612;28;20178;-65
2023/04/21 01:24:43;;;;;;;21.03;12.93;;;7.70;99.90;;;;;;5053510;28;20186;-65
2023/04/21 01:27:14;;;;;;;23.37;13.00;;;7.70;99.90;;;;;;5078632;28;20570;-65
2023/04/21 01:29:41;;;;;;;20.73;13.97;;;7.80;99.90;;;;;;5052714;28;20232;-64
2023/04/21 01:32:10;;;;;;;25.33;14.83;;;7.80;99.90;;;;;;5050597;28;20182;-64
2023/04/21 01:34:37;;;;;;;22.23;15.50;;;7.80;99.90;;;;;;5052084;28;20208;-65
2023/04/21 01:37:02;;;;;;;27.23;14.80;;;7.70;99.90;;;;;;5042514;28;20530;-65
2023/04/21 01:39:28;;;;;;;21.13;14.73;;;7.70;99.90;;;;;;5041219;28;20182;-64
2023/04/21 01:41:56;;;;;;;25.23;15.40;;;7.70;99.90;;;;;;5044105;28;20183;-65
2023/04/21 01:44:24;;;;;;;30.00;17.23;;;7.70;99.90;;;;;;5049338;28;20206;-63
2023/04/21 01:46:50;;;;;;;26.70;16.17;;;7.70;99.90;;;;;;5046620;28;20639;-63
2023/04/21 01:49:16;;;;;;;25.73;16.53;;;7.80;99.90;;;;;;5045260;28;20179;-64
2023/04/21 01:51:41;;;;;;;29.17;16.87;;;7.70;99.90;;;;;;5036415;28;20182;-64
2023/04/21 01:54:07;;;;;;;32.17;18.03;;;7.70;99.90;;;;;;5049749;28;20190;-63
2023/04/21 01:56:33;;;;;;;26.80;16.33;;;7.60;99.90;;;;;;5042515;28;20266;-62
2023/04/21 01:58:59;;;;;;;33.47;19.73;;;7.70;99.90;;;;;;5046745;28;20571;-63
2023/04/21 02:01:24;;;;;;;29.17;17.03;;;7.80;99.90;;;;;;5047351;28;20212;-63
2023/04/21 02:03:50;;;;;;;32.47;17.27;;;7.80;99.90;;;;;;5052077;28;20221;-63
2023/04/21 02:06:16;;;;;;;33.90;18.73;;;7.80;99.90;;;;;;5041387;28;20183;-62
2023/04/21 02:08:42;;;;;;;32.07;17.50;;;7.70;99.90;;;;;;5041208;28;20183;-62
2023/04/21 02:11:08;;;;;;;28.93;17.33;;;7.60;99.90;;;;;;5052918;28;20655;-62
2023/04/21 02:13:33;;;;;;;33.73;18.87;;;7.60;99.90;;;;;;5050541;28;20661;-62
2023/04/21 02:15:59;;;;;;;34.90;17.83;;;7.50;99.90;;;;;;5053086;28;20197;-62
2023/04/21 02:18:25;;;;;;;27.20;16.00;;;7.60;99.90;;;;;;5052421;28;20234;-62
2023/04/21 02:20:50;;;;;;;38.50;19.63;;;7.50;99.90;;;;;;5052901;28;20231;-62
2023/04/21 02:23:16;;;;;;;29.33;17.60;;;7.50;99.90;;;;;;5041480;28;20206;-63
2023/04/21 02:25:42;;;;;;;36.43;19.13;;;7.50;99.90;;;;;;5041621;28;20644;-63
2023/04/21 02:28:07;;;;;;;35.07;18.87;;;7.50;99.90;;;;;;5049926;28;20192;-62
2023/04/21 02:30:34;;;;;;;33.33;18.10;;;7.50;99.90;;;;;;5052623;28;20186;-62
2023/04/21 02:32:59;;;;;;;35.27;20.30;;;7.50;99.90;;;;;;5045979;28;20186;-62
2023/04/21 02:35:26;;;;;;;39.63;19.13;;;7.50;99.90;;;;;;5050708;28;20193;-62
2023/04/21 02:37:51;;;;;;;35.63;20.03;;;7.60;99.90;;;;;;5046698;28;20235;-62
2023/04/21 02:40:17;;;;;;;37.27;21.13;;;7.50;99.90;;;;;;5052645;28;20643;-61
2023/04/21 02:42:42;;;;;;;33.77;19.33;;;7.40;99.90;;;;;;5052748;28;20228;-62
2023/04/21 02:45:09;;;;;;;39.37;20.60;;;7.40;99.90;;;;;;5052508;28;20189;-61
2023/04/21 02:47:35;;;;;;;42.87;21.93;;;7.50;99.90;;;;;;5045727;28;20182;-61
2023/04/21 02:50:00;;;;;;;42.13;21.17;;;7.40;99.90;;;;;;5050758;28;20756;-62
2023/04/21 02:52:26;;;;;;;39.80;20.83;;;7.40;99.90;;;;;;5044114;28;20197;-62
2023/04/21 02:54:52;;;;;;;34.03;20.07;;;7.40;99.90;;;;;;5044392;28;20189;-61
2023/04/21 02:57:18;;;;;;;38.47;21.57;;;7.40;99.90;;;;;;5051151;28;20204;-61
2023/04/21 02:59:43;;;;;;;34.40;19.83;;;7.40;99.90;;;;;;5049035;28;20272;-61
2023/04/21 03:02:09;;;;;;;34.67;19.67;;;7.40;99.90;;;;;;5034487;28;20218;-62
2023/04/21 03:04:35;;;;;;;41.97;21.47;;;7.40;99.90;;;;;;5045664;28;20184;-61
2023/04/21 03:07:00;;;;;;;39.07;20.73;;;7.40;99.90;;;;;;5052113;28;20902;-61
2023/04/21 03:09:26;;;;;;;44.13;22.97;;;7.40;99.90;;;;;;5049252;28;20181;-61
2023/04/21 03:11:52;;;;;;;39.90;23.43;;;7.40;99.90;;;;;;5045717;28;20186;-61
2023/04/21 03:14:17;;;;;;;40.10;21.90;;;7.50;99.90;;;;;;5048967;28;20251;-60
2023/04/21 03:16:43;;;;;;;42.47;21.53;;;7.60;99.90;;;;;;5050570;28;20189;-61
2023/04/21 03:19:09;;;;;;;41.10;22.03;;;7.60;99.90;;;;;;5052089;28;20186;-61
2023/04/21 03:21:37;;;;;;;42.73;23.63;;;7.60;99.90;;;;;;5048794;28;20182;-61
2023/04/21 03:24:05;;;;;;;38.93;20.57;;;7.60;99.90;;;;;;5044281;28;20267;-61
2023/04/21 03:26:30;;;;;;;38.33;21.73;;;7.50;99.90;;;;;;5047311;28;20596;-61
2023/04/21 03:28:56;;;;;;;41.03;22.60;;;7.50;99.90;;;;;;5044973;28;20183;-61
2023/04/21 03:31:21;;;;;;;43.10;21.70;;;7.60;99.90;;;;;;5052443;28;20239;-60
2023/04/21 03:33:47;;;;;;;41.20;22.10;;;7.50;99.90;;;;;;5051746;28;20588;-61
2023/04/21 03:36:13;;;;;;;45.20;21.60;;;7.60;99.90;;;;;;5045290;28;20216;-61
2023/04/21 03:38:38;;;;;;;41.03;22.73;;;7.50;99.90;;;;;;5038189;28;20261;-61
2023/04/21 03:41:04;;;;;;;45.00;23.00;;;7.50;99.90;;;;;;5088530;28;20255;-61
2023/04/21 03:43:30;;;;;;;43.73;22.27;;;7.50;99.90;;;;;;5055724;28;20220;-61
2023/04/21 03:45:55;;;;;;;41.73;21.10;;;7.50;99.90;;;;;;5049667;28;20705;-61
2023/04/21 03:48:21;;;;;;;42.33;22.17;;;7.50;99.90;;;;;;5055141;28;20186;-61
2023/04/21 03:50:47;;;;;;;44.77;23.27;;;7.50;99.90;;;;;;5043123;28;20726;-61
2023/04/21 03:53:12;;;;;;;47.03;24.07;;;7.50;99.90;;;;;;5055196;28;20268;-62
2023/04/21 03:55:38;;;;;;;42.30;22.70;;;7.40;99.90;;;;;;5052264;28;20650;-61
2023/04/21 03:58:03;;;;;;;43.27;22.57;;;7.30;99.90;;;;;;5047631;28;20193;-62
2023/04/21 04:00:29;;;;;;;45.93;24.13;;;7.40;99.90;;;;;;5053646;28;20186;-61
2023/04/21 04:02:55;;;;;;;44.73;24.27;;;7.40;99.90;;;;;;5055215;28;20292;-61
2023/04/21 04:05:20;;;;;;;45.87;23.17;;;7.40;99.90;;;;;;5042053;28;20197;-62
2023/04/21 04:07:46;;;;;;;45.60;23.43;;;7.40;99.90;;;;;;5055918;28;20272;-61
2023/04/21 04:10:12;;;;;;;50.60;24.07;;;7.40;99.90;;;;;;5054215;28;20186;-61
2023/04/21 04:12:37;;;;;;;46.20;23.17;;;7.40;99.90;;;;;;5055511;28;20178;-61
2023/04/21 04:15:03;;;;;;;44.80;23.20;;;7.40;99.90;;;;;;5047291;28;20183;-62
2023/04/21 04:17:29;;;;;;;48.17;24.27;;;7.40;99.90;;;;;;5052742;28;20241;-62
2023/04/21 04:19:55;;;;;;;46.00;23.73;;;7.30;99.90;;;;;;5055209;28;20182;-62
2023/04/21 04:22:21;;;;;;;45.57;23.53;;;7.30;99.90;;;;;;5049100;28;20274;-62
2023/04/21 04:24:46;;;;;;;48.00;23.20;;;7.40;99.90;;;;;;5052102;28;20631;-63
2023/04/21 04:27:15;;;;;;;46.80;23.03;;;7.30;99.90;;;;;;5075980;28;20194;-62
2023/04/21 04:29:42;;;;;;;50.90;23.20;;;7.40;99.90;;;;;;5042529;28;20182;-63
2023/04/21 04:32:09;;;;;;;38.20;21.33;;;7.30;99.90;;;;;;5055157;28;20256;-62
2023/04/21 04:34:36;;;;;;;43.93;22.03;;;7.30;99.90;;;;;;5044671;28;20208;-62
2023/04/21 04:37:03;;;;;;;42.17;23.10;;;7.40;99.90;;;;;;5054955;28;20581;-62
2023/04/21 04:39:30;;;;;;;42.00;22.70;;;7.60;99.90;;;;;;5054938;28;20205;-62
2023/04/21 04:41:55;;;;;;;41.83;22.67;;;7.70;99.90;;;;;;5054643;28;20182;-64
2023/04/21 04:44:22;;;;;;;38.80;22.00;;;7.60;99.90;;;;;;5046149;28;20286;-63
2023/04/21 04:46:48;;;;;;;46.43;25.57;;;7.60;99.90;;;;;;5050078;28;20201;-62
2023/04/21 04:49:14;;;;;;;50.53;25.00;;;7.80;99.90;;;;;;5049846;28;20611;-62
2023/04/21 04:51:40;;;;;;;48.40;22.80;;;7.80;99.90;;;;;;5047123;28;20187;-62
2023/04/21 04:54:05;;;;;;;48.50;24.83;;;8.00;99.90;;;;;;5054864;28;20264;-62
2023/04/21 04:56:31;;;;;;;41.70;21.97;;;8.00;99.90;;;;;;5054916;28;20277;-62
2023/04/21 04:58:57;;;;;;;43.80;22.23;;;8.00;99.90;;;;;;5046163;28;20197;-62
2023/04/21 05:01:28;;;;;;;44.47;25.50;;;7.80;99.90;;;;;;5044868;28;20190;-62
2023/04/21 05:03:55;;;;;;;51.23;24.43;;;7.60;99.90;;;;;;5054233;28;20213;-65
2023/04/21 05:06:20;;;;;;;45.80;24.50;;;7.70;99.90;;;;;;5050412;28;20179;-61
2023/04/21 05:08:46;;;;;;;45.47;25.53;;;7.90;99.90;;;;;;5050447;28;20186;-63
2023/04/21 05:11:12;;;;;;;44.07;24.40;;;8.00;99.90;;;;;;5043824;28;20186;-63
2023/04/21 05:13:37;;;;;;;50.53;22.63;;;7.90;99.90;;;;;;5036425;28;20190;-63
2023/04/21 05:16:03;;;;;;;47.80;24.90;;;8.00;99.90;;;;;;5043783;28;20190;-66
2023/04/21 05:18:29;;;;;;;39.93;23.73;;;8.10;99.90;;;;;;5054158;28;20233;-65
2023/04/21 05:20:55;;;;;;;45.93;23.13;;;7.90;99.90;;;;;;5050095;28;20345;-63
2023/04/21 05:23:21;;;;;;;45.43;23.43;;;7.80;99.90;;;;;;5053774;28;20229;-63
2023/04/21 05:25:47;;;;;;;39.80;21.97;;;7.80;99.90;;;;;;5042000;28;20214;-65
2023/04/21 05:28:13;;;;;;;42.97;23.43;;;8.00;99.90;;;;;;5054215;28;20227;-62
2023/04/21 05:30:39;;;;;;;41.73;23.30;;;7.80;99.90;;;;;;5046861;28;20186;-62
2023/04/21 05:33:05;;;;;;;40.90;22.93;;;7.90;99.90;;;;;;5052644;28;20182;-62
2023/04/21 05:35:31;;;;;;;45.27;23.20;;;8.00;99.90;;;;;;5053593;28;20296;-63
2023/04/21 05:37:57;;;;;;;49.00;23.97;;;8.10;99.90;;;;;;5085975;28;20613;-65
2023/04/21 05:40:22;;;;;;;49.33;24.40;;;8.00;99.90;;;;;;5054373;28;20181;-63
2023/04/21 05:42:48;;;;;;;47.73;23.03;;;8.00;99.90;;;;;;5052491;28;20545;-63
2023/04/21 05:45:14;;;;;;;40.17;21.40;;;7.80;99.90;;;;;;5053803;28;20189;-64
2023/04/21 05:47:39;;;;;;;47.40;23.13;;;7.80;99.90;;;;;;5053530;28;20201;-62
2023/04/21 05:50:06;;;;;;;47.23;23.27;;;7.90;99.90;;;;;;5053348;28;20189;-63
2023/04/21 05:52:33;;;;;;;43.33;21.73;;;8.10;99.90;;;;;;5044096;28;20274;-62
2023/04/21 05:55:00;;;;;;;42.70;21.97;;;8.20;99.90;;;;;;5048915;28;20193;-66
2023/04/21 05:57:25;;;;;;;44.87;23.67;;;8.30;99.90;;;;;;5047255;28;20183;-63
2023/04/21 05:59:51;;;;;;;45.93;24.13;;;8.50;99.90;;;;;;5047376;28;20269;-62
2023/04/21 06:02:17;;;;;;;48.70;23.33;;;8.50;99.90;;;;;;5044618;28;20543;-64
2023/04/21 06:04:42;;;;;;;41.17;22.87;;;8.30;99.90;;;;;;5050543;28;20205;-63
2023/04/21 06:07:12;;;;;;;45.47;22.23;;;8.30;99.90;;;;;;5043896;28;20594;-64
2023/04/21 06:09:38;;;;;;;43.23;23.37;;;8.40;99.90;;;;;;5053389;28;20186;-64
2023/04/21 06:12:04;;;;;;;39.57;20.67;;;8.50;99.90;;;;;;5052450;28;20181;-65
2023/04/21 06:14:30;;;;;;;41.63;21.77;;;8.60;99.90;;;;;;5040756;28;20181;-65
2023/04/21 06:16:56;;;;;;;41.60;21.43;;;8.30;99.90;;;;;;5053026;28;20252;-64
2023/04/21 06:19:21;;;;;;;46.73;23.20;;;8.20;99.90;;;;;;5053144;28;20584;-62
2023/04/21 06:21:47;;;;;;;42.03;20.33;;;8.30;99.90;;;;;;5047689;28;20192;-63
2023/04/21 06:24:13;;;;;;;38.67;18.67;;;8.50;99.90;;;;;;5052516;28;20229;-65
2023/04/21 06:26:38;;;;;;;42.50;20.20;;;8.60;99.90;;;;;;5050201;28;20191;-62
2023/04/21 06:29:04;;;;;;;35.70;20.30;;;8.60;99.90;;;;;;5037162;28;20196;-63
2023/04/21 06:31:30;;;;;;;42.23;21.47;;;8.70;99.90;;;;;;5046825;28;20210;-66
2023/04/21 06:33:56;;;;;;;40.23;20.87;;;8.70;99.90;;;;;;5039268;28;20198;-64
2023/04/21 06:36:21;;;;;;;38.20;18.50;;;8.80;99.90;;;;;;5050892;28;20514;-63
2023/04/21 06:38:48;;;;;;;39.03;20.77;;;8.90;99.90;;;;;;5047327;28;20186;-65
2023/04/21 06:41:13;;;;;;;35.93;20.07;;;9.00;99.90;;;;;;5042802;28;20236;-63
2023/04/21 06:43:39;;;;;;;43.23;21.00;;;9.10;99.90;;;;;;5041396;28;20296;-64
2023/04/21 06:46:05;;;;;;;32.57;18.00;;;8.90;99.90;;;;;;5052770;28;20194;-65
2023/04/21 06:48:31;;;;;;;31.83;17.30;;;8.90;99.90;;;;;;5041534;28;20189;-64
2023/04/21 06:50:56;;;;;;;30.60;18.80;;;8.90;99.90;;;;;;5048087;28;20552;-65
2023/04/21 06:53:22;;;;;;;33.90;18.87;;;8.90;99.90;;;;;;5046656;28;20269;-65
2023/04/21 06:55:48;;;;;;;31.87;18.17;;;9.10;99.90;;;;;;5055878;28;20185;-66
2023/04/21 06:58:14;;;;;;;29.23;15.50;;;9.30;99.90;;;;;;5049122;28;20186;-66
2023/04/21 07:00:40;;;;;;;30.00;17.33;;;9.40;99.90;;;;;;5051895;28;20189;-63
2023/04/21 07:03:06;;;;;;;35.63;19.27;;;9.30;99.90;;;;;;5068292;28;20202;-65
2023/04/21 07:05:31;;;;;;;32.00;18.23;;;9.50;99.90;;;;;;5040965;28;20244;-69
2023/04/21 07:08:00;;;;;;;27.53;14.73;;;9.60;99.90;;;;;;5048354;28;20187;-65
2023/04/21 07:10:26;;;;;;;32.47;16.63;;;9.40;99.90;;;;;;5047977;28;20662;-63
2023/04/21 07:12:52;;;;;;;31.13;17.17;;;9.40;99.90;;;;;;5048919;28;20202;-65
2023/04/21 07:15:18;;;;;;;33.17;17.60;;;9.20;99.90;;;;;;5046279;28;20224;-67
2023/04/21 07:17:43;;;;;;;28.73;16.53;;;9.40;99.90;;;;;;5042871;28;20225;-67
2023/04/21 07:20:09;;;;;;;26.50;15.13;;;9.60;99.90;;;;;;5045449;28;20182;-67
2023/04/21 07:22:35;;;;;;;26.17;14.80;;;9.70;99.90;;;;;;5047060;28;20666;-65
2023/04/21 07:25:07;;;;;;;29.00;15.73;;;9.80;99.90;;;;;;5043709;28;20339;-67
2023/04/21 07:27:35;;;;;;;27.83;16.03;;;9.90;99.90;;;;;;5063731;28;20194;-66
2023/04/21 07:30:02;;;;;;;30.07;15.63;;;10.00;99.90;;;;;;5083028;28;20182;-64
2023/04/21 07:32:27;;;;;;;25.10;13.93;;;10.20;99.90;;;;;;5047602;28;20181;-67
2023/04/21 07:34:53;;;;;;;30.27;15.67;;;10.30;99.90;;;;;;5046965;28;20543;-67
2023/04/21 07:37:19;;;;;;;25.20;14.80;;;11.10;99.90;;;;;;5052347;28;20541;-67
2023/04/21 07:39:45;;;;;;;20.73;12.32;;;12.10;99.90;;;;;;5084300;28;20662;-66
2023/04/21 07:42:10;;;;;;;26.13;15.55;;;13.00;99.90;;;;;;5052006;28;20197;-66
2023/04/21 07:44:36;;;;;;;23.60;13.93;;;13.50;99.90;;;;;;5052001;28;20198;-68
2023/04/21 07:47:02;;;;;;;20.20;13.05;;;14.00;99.90;;;;;;5046325;28;20192;-65
2023/04/21 07:49:28;;;;;;;17.42;11.40;;;14.00;99.90;;;;;;5052091;28;20235;-67
2023/04/21 07:51:53;;;;;;;18.42;12.60;;;14.20;99.90;;;;;;5044261;28;20174;-65
2023/04/21 07:54:19;;;;;;;19.35;11.57;;;14.40;99.90;;;;;;5041955;28;20277;-67
2023/04/21 07:56:45;;;;;;;17.58;11.98;;;14.40;99.90;;;;;;5047756;28;20636;-65
2023/04/21 07:59:10;;;;;;;21.23;11.55;;;14.70;99.90;;;;;;5048610;28;20209;-67
2023/04/21 08:01:36;;;;;;;17.98;11.10;;;15.10;99.90;;;;;;5051610;28;20189;-68
2023/04/21 08:04:02;;;;;;;18.40;11.55;;;16.20;99.90;;;;;;5039471;28;20741;-67
2023/04/21 08:06:27;;;;;;;16.98;10.57;;;16.80;99.90;;;;;;5042736;28;20540;-69
2023/04/21 08:08:54;;;;;;;17.63;10.93;;;17.00;99.90;;;;;;5050071;28;20178;-64
2023/04/21 08:11:21;;;;;;;13.90;8.98;;;17.80;99.90;;;;;;5046038;28;20182;-63
2023/04/21 08:13:47;;;;;;;16.27;10.55;;;17.30;99.90;;;;;;5046709;28;20178;-65
2023/04/21 08:16:13;;;;;;;17.38;10.77;;;17.50;99.90;;;;;;5053094;28;20178;-66
2023/04/21 08:18:38;;;;;;;15.93;11.20;;;18.00;99.90;;;;;;5054051;28;20690;-65
2023/04/21 08:21:04;;;;;;;16.42;11.07;;;18.80;99.90;;;;;;5052665;28;20197;-67
2023/04/21 08:23:30;;;;;;;17.92;11.18;;;19.50;99.90;;;;;;5054847;28;20538;-66
2023/04/21 08:25:56;;;;;;;14.52;9.93;;;20.10;99.90;;;;;;5055494;28;20205;-67
2023/04/21 08:28:21;;;;;;;15.57;8.65;;;19.70;99.90;;;;;;5050893;28;20194;-66
2023/04/21 08:30:47;;;;;;;15.50;10.23;;;19.80;99.90;;;;;;5054581;28;20210;-67
2023/04/21 08:33:13;;;;;;;15.85;10.30;;;18.80;99.90;;;;;;5055005;28;20189;-66
2023/04/21 08:35:40;;;;;;;14.25;9.25;;;18.70;99.90;;;;;;5048917;28;20258;-67
2023/04/21 08:38:07;;;;;;;17.95;9.57;;;19.10;99.90;;;;;;5087843;28;20277;-71
2023/04/21 08:40:37;;;;;;;18.00;10.25;;;19.40;99.90;;;;;;5056968;28;20189;-66
2023/04/21 08:43:05;;;;;;;12.80;9.35;;;19.20;99.90;;;;;;5056041;28;20198;-65
2023/04/21 08:45:31;;;;;;;16.10;10.27;;;18.50;99.90;;;;;;5061083;28;20256;-65
2023/04/21 08:47:59;;;;;;;15.70;10.25;;;17.90;99.90;;;;;;5059449;28;20185;-69
2023/04/21 08:50:28;;;;;;;13.27;9.13;;;18.10;99.90;;;;;;5054694;28;20170;-71
2023/04/21 08:52:55;;;;;;;16.20;9.77;;;18.00;99.90;;;;;;5053452;28;20178;-66
2023/04/21 08:55:29;;;;;;;14.70;10.20;;;18.30;99.90;;;;;;5059752;28;20206;-70
2023/04/21 08:57:54;;;;;;;17.02;10.10;;;18.50;99.90;;;;;;5046829;28;20193;-67
2023/04/21 09:00:20;;;;;;;16.20;10.32;;;18.40;99.90;;;;;;5046884;28;20194;-67
2023/04/21 09:02:54;;;;;;;15.25;9.23;;;17.50;99.90;;;;;;5048291;28;20341;-71
2023/04/21 09:05:32;;;;;;;15.27;9.93;;;17.50;99.90;;;;;;5034350;28;20198;-68
2023/04/21 09:08:28;;;;;;;16.48;10.45;;;17.00;99.90;;;;;;5043154;28;20269;-66
2023/04/21 09:10:55;;;;;;;17.00;10.75;;;16.50;99.90;;;;;;5052188;28;20206;-67
2023/04/21 09:13:32;;;;;;;15.07;11.30;;;16.30;99.90;;;;;;5048401;28;20282;-67
2023/04/21 09:15:58;;;;;;;15.70;10.52;;;15.70;99.90;;;;;;5053576;28;20224;-67
2023/04/21 09:18:26;;;;;;;14.80;10.63;;;15.20;99.90;;;;;;5047718;28;20231;-68
2023/04/21 09:21:13;;;;;;;20.45;11.48;;;15.10;99.90;;;;;;5060442;28;20269;-67
2023/04/21 09:23:40;;;;;;;18.50;10.45;;;14.80;99.90;;;;;;5048027;28;20289;-71
2023/04/21 09:26:06;;;;;;;20.77;12.07;;;14.80;99.90;;;;;;5042956;28;20189;-66
2023/04/21 09:28:32;;;;;;;15.63;10.73;;;14.70;99.90;;;;;;5053972;28;20186;-67
2023/04/21 09:30:57;;;;;;;19.27;11.48;;;14.50;99.90;;;;;;5053578;28;20271;-67
2023/04/21 09:33:23;;;;;;;19.02;11.93;;;14.30;99.90;;;;;;5054085;28;20186;-67
2023/04/21 09:35:51;;;;;;;20.92;12.98;;;14.00;99.90;;;;;;5054022;28;20249;-67
2023/04/21 09:38:16;;;;;;;16.50;9.80;;;13.90;99.90;;;;;;5048352;28;20183;-67
2023/04/21 09:40:42;;;;;;;15.38;9.45;;;14.10;99.90;;;;;;5051297;28;20254;-65
2023/04/21 09:43:08;;;;;;;14.27;9.50;;;14.40;99.90;;;;;;5048195;28;20308;-64
2023/04/21 09:45:35;;;;;;;20.10;9.88;;;14.50;99.90;;;;;;5053346;28;20565;-67
2023/04/21 09:48:01;;;;;;;14.27;10.80;;;14.50;99.90;;;;;;5046185;28;20317;-67
2023/04/21 09:50:28;;;;;;;14.40;9.98;;;14.70;99.90;;;;;;5051213;28;20603;-67
2023/04/21 09:52:56;;;;;;;17.77;10.68;;;14.50;99.90;;;;;;5047589;28;20186;-67
2023/04/21 09:55:26;;;;;;;16.33;10.63;;;14.20;99.90;;;;;;5042515;28;20188;-67
2023/04/21 09:57:59;;;;;;;14.02;8.95;;;13.90;99.90;;;;;;5090516;28;20192;-69
2023/04/21 10:00:30;;;;;;;14.13;9.20;;;13.80;99.90;;;;;;5052665;28;20174;-68
2023/04/21 10:02:58;;;;;;;16.55;10.68;;;13.90;99.90;;;;;;5046867;28;20256;-67
2023/04/21 10:05:25;;;;;;;12.15;8.52;;;13.80;99.90;;;;;;5050221;28;20580;-65
2023/04/21 10:07:51;;;;;;;14.23;8.80;;;14.00;99.90;;;;;;5056626;28;20243;-67
2023/04/21 10:10:26;;;;;;;13.07;8.63;;;14.10;99.90;;;;;;5052590;28;20190;-66
2023/04/21 10:12:52;;;;;;;10.93;8.68;;;14.30;99.90;;;;;;5055001;28;20220;-66
2023/04/21 10:15:37;;;;;;;14.43;9.70;;;14.40;99.90;;;;;;5049025;28;20189;-66
2023/04/21 10:18:22;;;;;;;13.85;9.65;;;14.60;99.90;;;;;;5045644;28;20229;-65
2023/04/21 10:20:57;;;;;;;14.90;9.55;;;14.40;99.90;;;;;;5052770;28;20174;-67
2023/04/21 10:23:30;;;;;;;14.77;8.38;;;14.50;99.90;;;;;;5051318;28;20285;-66
2023/04/21 10:26:02;;;;;;;16.08;10.18;;;14.90;99.90;;;;;;5051816;28;20198;-65
2023/04/21 10:28:41;;;;;;;14.90;9.52;;;15.00;99.90;;;;;;5051075;28;20257;-66
2023/04/21 10:31:16;;;;;;;11.80;8.15;;;14.80;99.90;;;;;;5052435;28;20549;-66
2023/04/21 10:34:02;;;;;;;10.52;7.78;;;14.90;99.90;;;;;;5040410;28;20186;-65
2023/04/21 10:36:27;;;;;;;15.23;8.07;;;15.10;99.90;;;;;;5043949;28;20186;-65
2023/04/21 10:38:56;;;;;;;9.02;7.07;;;15.20;99.90;;;;;;5054160;28;20183;-65
2023/04/21 10:41:30;;;;;;;13.18;8.45;;;15.40;99.90;;;;;;5038840;28;20186;-65
2023/04/21 10:43:59;;;;;;;11.90;7.85;;;15.40;99.90;;;;;;5045136;28;20212;-65
2023/04/21 10:46:51;;;;;;;11.93;8.85;;;15.30;99.90;;;;;;5052378;28;20225;-67
2023/04/21 10:49:21;;;;;;;11.65;7.72;;;15.30;99.90;;;;;;5050913;28;20198;-69
2023/04/21 10:52:01;;;;;;;8.93;6.80;;;15.30;99.90;;;;;;5050282;28;20190;-70
2023/04/21 10:54:30;;;;;;;12.00;7.75;;;15.50;99.90;;;;;;5048727;28;20185;-66
2023/04/21 10:56:57;;;;;;;12.48;8.27;;;15.80;99.90;;;;;;5052680;28;20218;-65
2023/04/21 10:59:25;;;;;;;11.18;8.73;;;15.80;99.90;;;;;;5052216;28;20663;-66
2023/04/21 11:01:51;;;;;;;16.80;10.02;;;15.40;99.90;;;;;;5048536;28;20565;-66
2023/04/21 11:04:19;;;;;;;13.50;9.27;;;15.20;99.90;;;;;;5046759;28;20206;-68
2023/04/21 11:07:18;;;;;;;13.05;8.65;;;15.20;99.90;;;;;;5047485;28;20186;-64
2023/04/21 11:09:45;;;;;;;14.30;9.23;;;14.90;99.90;;;;;;5037470;28;20190;-66
2023/04/21 11:12:17;;;;;;;10.65;7.88;;;15.20;99.90;;;;;;5047435;28;20186;-66
2023/04/21 11:14:46;;;;;;;12.07;8.00;;;15.20;99.90;;;;;;5051622;28;20216;-64
2023/04/21 11:17:14;;;;;;;10.30;7.50;;;15.50;99.90;;;;;;5048727;28;20245;-64
2023/04/21 11:19:41;;;;;;;9.52;7.82;;;15.80;99.90;;;;;;5051715;28;20196;-64
2023/04/21 11:22:07;;;;;;;11.27;7.55;;;16.10;99.90;;;;;;5047399;28;20248;-69
2023/04/21 11:24:32;;;;;;;10.73;6.75;;;16.20;99.90;;;;;;5048871;28;20702;-67
2023/04/21 11:27:00;;;;;;;9.18;6.85;;;15.90;99.90;;;;;;5047132;28;20268;-68
2023/04/21 11:29:28;;;;;;;10.23;6.68;;;15.70;99.90;;;;;;5043925;28;20694;-67
2023/04/21 11:31:54;;;;;;;10.75;7.53;;;15.50;99.90;;;;;;5050983;28;20208;-68
2023/04/21 11:34:20;;;;;;;9.43;6.78;;;15.60;99.90;;;;;;5051541;28;20224;-68
2023/04/21 11:36:47;;;;;;;12.70;7.72;;;15.90;99.90;;;;;;5050280;28;20185;-69
2023/04/21 11:39:16;;;;;;;8.48;6.53;;;16.30;99.90;;;;;;5051192;28;20189;-70
2023/04/21 11:41:44;;;;;;;8.70;6.05;;;16.60;99.90;;;;;;5051682;28;20269;-69
2023/04/21 11:44:11;;;;;;;38.28;11.65;;;16.70;99.90;;;;;;5047813;28;20293;-68
2023/04/21 11:46:42;;;;;;;9.68;6.13;;;16.60;99.90;;;;;;5049172;28;20642;-69
2023/04/21 11:49:13;;;;;;;10.52;6.93;;;16.60;99.90;;;;;;5051096;28;20329;-63
2023/04/21 11:51:40;;;;;;;10.27;6.40;;;16.40;99.90;;;;;;5049402;28;20189;-63
2023/04/21 11:54:12;;;;;;;9.77;6.88;;;16.50;99.90;;;;;;5051976;28;20197;-64
2023/04/21 11:56:39;;;;;;;11.75;7.63;;;16.60;99.90;;;;;;5054414;28;20182;-65
2023/04/21 11:59:10;;;;;;;10.23;7.10;;;16.40;99.90;;;;;;5050999;28;20182;-64
2023/04/21 12:01:46;;;;;;;9.27;6.63;;;16.40;99.90;;;;;;5054100;28;20182;-63
2023/04/21 12:04:17;;;;;;;9.20;6.68;;;16.40;99.90;;;;;;5053348;28;20217;-63
2023/04/21 12:06:44;;;;;;;10.45;7.18;;;16.40;99.90;;;;;;5053931;28;20194;-64
2023/04/21 12:09:16;;;;;;;10.60;7.45;;;16.50;99.90;;;;;;5055326;28;20186;-64
2023/04/21 12:11:45;;;;;;;9.35;6.18;;;16.40;99.90;;;;;;5055445;28;20178;-63
2023/04/21 12:14:11;;;;;;;8.30;5.60;;;16.60;99.90;;;;;;5054509;28;20615;-63
2023/04/21 12:16:37;;;;;;;10.80;6.57;;;17.00;99.90;;;;;;5054490;28;20182;-64
2023/04/21 12:19:02;;;;;;;9.25;6.65;;;16.80;99.90;;;;;;5053971;28;20328;-64
2023/04/21 12:21:29;;;;;;;9.77;6.20;;;16.70;99.90;;;;;;5052107;28;20209;-64
2023/04/21 12:23:55;;;;;;;9.88;6.43;;;17.10;99.90;;;;;;5054932;28;20214;-64
2023/04/21 12:26:22;;;;;;;7.60;5.97;;;17.30;99.90;;;;;;5054174;28;20190;-64
2023/04/21 12:28:49;;;;;;;11.13;7.03;;;17.00;99.90;;;;;;5045504;28;20206;-63
2023/04/21 12:31:15;;;;;;;7.30;5.60;;;16.80;99.90;;;;;;5054823;28;20182;-62
2023/04/21 12:33:40;;;;;;;8.07;5.95;;;17.00;99.90;;;;;;5054768;28;20186;-64
2023/04/21 12:36:07;;;;;;;9.05;6.00;;;17.40;99.90;;;;;;5054499;28;20190;-64